sensor_id;sensor_type;location;lat;lon;timestamp;pressure;altitude;pressure_sealevel;temperature;humidity
51439;BME280;38816;51.142;-0.974;2023-05-03T00:00:31;101253.97;;;6.45;100.00
51439;BME280;38816;51.142;-0.974;2023-05-03T00:02:56;101252.94;;;6.41;100.00
51439;BME280;38816;51.142;-0.974;2023-05-03T00:05:22;101251.66;;;6.33;100.00
51439;BME280;38816;51.142;-0.974;2023-05-03T00:07:47;101247.31;;;6.30;100.00
51439;BME280;38816;51.142;-0.974;2023-05-03T00:10:13;101255.91;;;6.32;100.00
51439;BME280;38816;51.142;-0.974;2023-05-03T00:12:41;101261.81;;;6.31;100.00
51439;BME280;38816;51.142;-0.974;2023-05-03T00:15:08;101258.16;;;6.26;100.00
51439;BME280;38816;51.142;-0.974;2023-05-03T00:17:34;101254.56;;;6.23;100.00
51439;BME280;38816;51.142;-0.974;2023-05-03T00:20:00;101251.63;;;6.15;100.00
51439;BME280;38816;51.142;-0.974;2023-05-03T00:22:25;101247.25;;;6.13;100.00
51439;BME280;38816;51.142;-0.974;2023-05-03T00:24:51;101245.34;;;6.08;100.00
51439;BME280;38816;51.142;-0.974;2023-05-03T00:27:17;101240.66;;;6.00;100.00
51439;BME280;38816;51.142;-0.974;2023-05-03T00:29:43;101247.50;;;6.01;100.00
51439;BME280;38816;51.142;-0.974;2023-05-03T00:32:08;101257.72;;;6.01;100.00
51439;BME280;38816;51.142;-0.974;2023-05-03T00:34:36;101247.03;;;5.92;100.00
51439;BME280;38816;51.142;-0.974;2023-05-03T00:37:01;101254.75;;;5.93;100.00
51439;BME280;38816;51.142;-0.974;2023-05-03T00:39:28;101246.84;;;5.89;100.00
51439;BME280;38816;51.142;-0.974;2023-05-03T00:41:56;101254.34;;;5.86;100.00
51439;BME280;38816;51.142;-0.974;2023-05-03T00:44:22;101242.00;;;5.77;100.00
51439;BME280;38816;51.142;-0.974;2023-05-03T00:46:48;101256.75;;;5.82;100.00
51439;BME280;38816;51.142;-0.974;2023-05-03T00:49:13;101232.19;;;5.68;100.00
51439;BME280;38816;51.142;-0.974;2023-05-03T00:51:39;101251.34;;;5.76;100.00
51439;BME280;38816;51.142;-0.974;2023-05-03T00:54:06;101244.06;;;5.68;100.00
51439;BME280;38816;51.142;-0.974;2023-05-03T00:56:32;101243.97;;;5.66;100.00
51439;BME280;38816;51.142;-0.974;2023-05-03T00:58:58;101243.91;;;5.65;100.00
51439;BME280;38816;51.142;-0.974;2023-05-03T01:01:24;101231.53;;;5.56;100.00
51439;BME280;38816;51.142;-0.974;2023-05-03T01:03:49;101240.13;;;5.58;100.00
51439;BME280;38816;51.142;-0.974;2023-05-03T01:09:02;101238.38;;;5.57;100.00
51439;BME280;38816;51.142;-0.974;2023-05-03T01:11:56;101236.06;;;5.62;100.00
51439;BME280;38816;51.142;-0.974;2023-05-03T01:17:38;101238.25;;;5.54;100.00
51439;BME280;38816;51.142;-0.974;2023-05-03T01:20:05;101231.31;;;5.51;100.00
51439;BME280;38816;51.142;-0.974;2023-05-03T01:25:12;101220.84;;;5.47;100.00
51439;BME280;38816;51.142;-0.974;2023-05-03T01:27:39;101217.81;;;5.38;100.00
51439;BME280;38816;51.142;-0.974;2023-05-03T01:30:06;101218.78;;;5.40;100.00
51439;BME280;38816;51.142;-0.974;2023-05-03T01:35:16;101225.47;;;5.38;100.00
51439;BME280;38816;51.142;-0.974;2023-05-03T01:37:45;101225.41;;;5.36;100.00
51439;BME280;38816;51.142;-0.974;2023-05-03T01:40:11;101201.63;;;5.21;100.00
51439;BME280;38816;51.142;-0.974;2023-05-03T01:42:41;101212.81;;;5.23;100.00
51439;BME280;38816;51.142;-0.974;2023-05-03T01:45:07;101211.94;;;5.22;100.00
51439;BME280;38816;51.142;-0.974;2023-05-03T01:47:32;101204.09;;;5.19;100.00
51439;BME280;38816;51.142;-0.974;2023-05-03T01:49:58;101226.41;;;5.23;100.00
51439;BME280;38816;51.142;-0.974;2023-05-03T01:52:23;101217.78;;;5.21;100.00
51439;BME280;38816;51.142;-0.974;2023-05-03T01:54:48;101222.75;;;5.18;100.00
51439;BME280;38816;51.142;-0.974;2023-05-03T01:57:14;101216.44;;;5.12;100.00
51439;BME280;38816;51.142;-0.974;2023-05-03T01:59:39;101212.69;;;5.05;100.00
51439;BME280;38816;51.142;-0.974;2023-05-03T02:02:05;101213.63;;;5.07;100.00
51439;BME280;38816;51.142;-0.974;2023-05-03T02:04:30;101197.06;;;4.99;100.00
51439;BME280;38816;51.142;-0.974;2023-05-03T02:06:55;101209.28;;;5.04;100.00
51439;BME280;38816;51.142;-0.974;2023-05-03T02:09:21;101212.44;;;5.00;100.00
51439;BME280;38816;51.142;-0.974;2023-05-03T02:11:46;101195.94;;;4.94;100.00
51439;BME280;38816;51.142;-0.974;2023-05-03T02:14:12;101210.41;;;4.95;100.00
51439;BME280;38816;51.142;-0.974;2023-05-03T02:16:37;101212.88;;;4.93;100.00
51439;BME280;38816;51.142;-0.974;2023-05-03T02:19:03;101213.69;;;4.92;100.00
51439;BME280;38816;51.142;-0.974;2023-05-03T02:21:28;101216.38;;;4.95;100.00
51439;BME280;38816;51.142;-0.974;2023-05-03T02:23:53;101212.81;;;4.92;100.00
51439;BME280;38816;51.142;-0.974;2023-05-03T02:26:19;101209.47;;;4.93;100.00
51439;BME280;38816;51.142;-0.974;2023-05-03T02:28:45;101214.38;;;4.90;100.00
51439;BME280;38816;51.142;-0.974;2023-05-03T02:31:10;101213.44;;;4.88;100.00
51439;BME280;38816;51.142;-0.974;2023-05-03T02:33:37;101205.53;;;4.83;100.00
51439;BME280;38816;51.142;-0.974;2023-05-03T02:36:03;101205.63;;;4.85;100.00
51439;BME280;38816;51.142;-0.974;2023-05-03T02:38:29;101204.56;;;4.81;100.00
51439;BME280;38816;51.142;-0.974;2023-05-03T02:40:54;101201.75;;;4.76;100.00
51439;BME280;38816;51.142;-0.974;2023-05-03T02:43:20;101211.25;;;4.79;100.00
51439;BME280;38816;51.142;-0.974;2023-05-03T02:45:45;101211.25;;;4.79;100.00
51439;BME280;38816;51.142;-0.974;2023-05-03T02:48:10;101201.63;;;4.73;100.00
51439;BME280;38816;51.142;-0.974;2023-05-03T02:50:37;101205.19;;;4.77;100.00
51439;BME280;38816;51.142;-0.974;2023-05-03T02:53:03;101195.53;;;4.71;100.00
51439;BME280;38816;51.142;-0.974;2023-05-03T02:55:28;101205.13;;;4.75;100.00
51439;BME280;38816;51.142;-0.974;2023-05-03T02:57:53;101202.50;;;4.74;100.00
51439;BME280;38816;51.142;-0.974;2023-05-03T03:00:19;101188.19;;;4.61;100.00
51439;BME280;38816;51.142;-0.974;2023-05-03T03:02:44;101208.09;;;4.68;100.00
51439;BME280;38816;51.142;-0.974;2023-05-03T03:05:10;101194.09;;;4.60;100.00
51439;BME280;38816;51.142;-0.974;2023-05-03T03:07:36;101206.22;;;4.64;100.00
51439;BME280;38816;51.142;-0.974;2023-05-03T03:10:03;101193.03;;;4.56;100.00
51439;BME280;38816;51.142;-0.974;2023-05-03T03:12:28;101209.38;;;4.60;100.00
51439;BME280;38816;51.142;-0.974;2023-05-03T03:14:54;101197.94;;;4.53;100.00
51439;BME280;38816;51.142;-0.974;2023-05-03T03:17:19;101193.59;;;4.51;100.00
51439;BME280;38816;51.142;-0.974;2023-05-03T03:19:45;101191.97;;;4.53;100.00
51439;BME280;38816;51.142;-0.974;2023-05-03T03:22:10;101184.81;;;4.46;100.00
51439;BME280;38816;51.142;-0.974;2023-05-03T03:24:35;101175.88;;;4.38;100.00
51439;BME280;38816;51.142;-0.974;2023-05-03T03:27:01;101162.97;;;4.35;100.00
51439;BME280;38816;51.142;-0.974;2023-05-03T03:29:28;101179.53;;;4.43;100.00
51439;BME280;38816;51.142;-0.974;2023-05-03T03:31:54;101173.31;;;4.38;100.00
51439;BME280;38816;51.142;-0.974;2023-05-03T03:34:19;101165.31;;;4.31;100.00
51439;BME280;38816;51.142;-0.974;2023-05-03T03:36:45;101170.59;;;4.35;100.00
51439;BME280;38816;51.142;-0.974;2023-05-03T03:39:10;101160.22;;;4.31;100.00
51439;BME280;38816;51.142;-0.974;2023-05-03T03:41:36;101154.00;;;4.26;100.00
51439;BME280;38816;51.142;-0.974;2023-05-03T03:44:01;101160.69;;;4.24;100.00
51439;BME280;38816;51.142;-0.974;2023-05-03T03:46:27;101160.16;;;4.30;100.00
51439;BME280;38816;51.142;-0.974;2023-05-03T03:48:52;101147.97;;;4.24;100.00
51439;BME280;38816;51.142;-0.974;2023-05-03T03:51:18;101145.16;;;4.20;100.00
51439;BME280;38816;51.142;-0.974;2023-05-03T03:53:43;101144.97;;;4.17;100.00
51439;BME280;38816;51.142;-0.974;2023-05-03T03:56:08;101146.47;;;4.13;100.00
51439;BME280;38816;51.142;-0.974;2023-05-03T03:58:34;101154.28;;;4.16;100.00
51439;BME280;38816;51.142;-0.974;2023-05-03T04:04:11;101145.16;;;4.05;100.00
51439;BME280;38816;51.142;-0.974;2023-05-03T04:06:37;101153.03;;;4.10;100.00
51439;BME280;38816;51.142;-0.974;2023-05-03T04:09:02;101133.94;;;4.01;100.00
51439;BME280;38816;51.142;-0.974;2023-05-03T04:11:28;101151.28;;;4.09;100.00
51439;BME280;38816;51.142;-0.974;2023-05-03T04:13:53;101155.44;;;4.06;100.00
51439;BME280;38816;51.142;-0.974;2023-05-03T04:16:18;101141.47;;;4.00;100.00
51439;BME280;38816;51.142;-0.974;2023-05-03T04:18:44;101144.81;;;3.99;100.00
51439;BME280;38816;51.142;-0.974;2023-05-03T04:21:09;101153.59;;;4.04;100.00
51439;BME280;38816;51.142;-0.974;2023-05-03T04:23:35;101151.84;;;4.03;100.00
51439;BME280;38816;51.142;-0.974;2023-05-03T04:26:01;101139.72;;;3.99;100.00
51439;BME280;38816;51.142;-0.974;2023-05-03T04:28:26;101147.34;;;3.99;100.00
51439;BME280;38816;51.142;-0.974;2023-05-03T04:30:52;101154.63;;;4.07;100.00
51439;BME280;38816;51.142;-0.974;2023-05-03T04:33:19;101153.94;;;4.10;100.00
51439;BME280;38816;51.142;-0.974;2023-05-03T04:35:48;101150.75;;;4.14;100.00
51439;BME280;38816;51.142;-0.974;2023-05-03T04:38:13;101147.59;;;4.18;100.00
51439;BME280;38816;51.142;-0.974;2023-05-03T04:40:39;101139.97;;;4.18;100.00
51439;BME280;38816;51.142;-0.974;2023-05-03T04:43:05;101141.13;;;4.23;100.00
51439;BME280;38816;51.142;-0.974;2023-05-03T04:45:30;101145.13;;;4.35;100.00
51439;BME280;38816;51.142;-0.974;2023-05-03T04:47:55;101143.72;;;4.40;100.00
51439;BME280;38816;51.142;-0.974;2023-05-03T04:50:21;101141.34;;;4.43;100.00
51439;BME280;38816;51.142;-0.974;2023-05-03T04:52:46;101135.66;;;4.47;100.00
51439;BME280;38816;51.142;-0.974;2023-05-03T04:55:12;101145.91;;;4.48;100.00
51439;BME280;38816;51.142;-0.974;2023-05-03T04:57:38;101134.91;;;4.49;100.00
51439;BME280;38816;51.142;-0.974;2023-05-03T05:00:04;101134.22;;;4.52;100.00
51439;BME280;38816;51.142;-0.974;2023-05-03T05:02:34;101136.84;;;4.53;100.00
51439;BME280;38816;51.142;-0.974;2023-05-03T05:05:00;101132.63;;;4.54;100.00
51439;BME280;38816;51.142;-0.974;2023-05-03T05:07:25;101137.91;;;4.57;100.00
51439;BME280;38816;51.142;-0.974;2023-05-03T05:09:51;101140.13;;;4.67;100.00
51439;BME280;38816;51.142;-0.974;2023-05-03T05:12:16;101141.25;;;4.72;100.00
51439;BME280;38816;51.142;-0.974;2023-05-03T05:14:41;101132.44;;;4.66;100.00
51439;BME280;38816;51.142;-0.974;2023-05-03T05:17:07;101136.97;;;4.71;100.00
51439;BME280;38816;51.142;-0.974;2023-05-03T05:19:32;101142.06;;;4.71;100.00
51439;BME280;38816;51.142;-0.974;2023-05-03T05:21:58;101140.50;;;4.73;100.00
51439;BME280;38816;51.142;-0.974;2023-05-03T05:24:23;101141.38;;;4.74;100.00
51439;BME280;38816;51.142;-0.974;2023-05-03T05:26:48;101131.00;;;4.71;100.00
51439;BME280;38816;51.142;-0.974;2023-05-03T05:29:14;101132.75;;;4.72;100.00
51439;BME280;38816;51.142;-0.974;2023-05-03T05:31:39;101142.41;;;4.77;100.00
51439;BME280;38816;51.142;-0.974;2023-05-03T05:34:04;101138.50;;;4.84;100.00
51439;BME280;38816;51.142;-0.974;2023-05-03T05:36:30;101137.63;;;4.83;100.00
51439;BME280;38816;51.142;-0.974;2023-05-03T05:38:55;101144.91;;;4.92;100.00
51439;BME280;38816;51.142;-0.974;2023-05-03T05:41:21;101141.38;;;4.90;100.00
51439;BME280;38816;51.142;-0.974;2023-05-03T05:43:46;101140.69;;;4.93;100.00
51439;BME280;38816;51.142;-0.974;2023-05-03T05:46:12;101152.16;;;5.01;100.00
51439;BME280;38816;51.142;-0.974;2023-05-03T05:48:38;101153.22;;;5.04;100.00
51439;BME280;38816;51.142;-0.974;2023-05-03T05:51:04;101143.00;;;5.04;100.00
51439;BME280;38816;51.142;-0.974;2023-05-03T05:53:30;101150.34;;;5.15;100.00
51439;BME280;38816;51.142;-0.974;2023-05-03T05:55:55;101159.16;;;5.21;100.00
51439;BME280;38816;51.142;-0.974;2023-05-03T05:58:21;101153.31;;;5.22;100.00
51439;BME280;38816;51.142;-0.974;2023-05-03T06:00:46;101150.25;;;5.29;100.00
51439;BME280;38816;51.142;-0.974;2023-05-03T06:03:14;101159.44;;;5.42;100.00
51439;BME280;38816;51.142;-0.974;2023-05-03T06:05:40;101160.38;;;5.44;100.00
51439;BME280;38816;51.142;-0.974;2023-05-03T06:08:05;101171.94;;;5.54;100.00
51439;BME280;38816;51.142;-0.974;2023-05-03T06:10:31;101163.50;;;5.55;100.00
51439;BME280;38816;51.142;-0.974;2023-05-03T06:12:56;101163.97;;;5.64;100.00
51439;BME280;38816;51.142;-0.974;2023-05-03T06:15:22;101165.22;;;5.72;100.00
51439;BME280;38816;51.142;-0.974;2023-05-03T06:17:47;101165.69;;;5.81;100.00
51439;BME280;38816;51.142;-0.974;2023-05-03T06:20:12;101170.28;;;5.89;100.00
51439;BME280;38816;51.142;-0.974;2023-05-03T06:22:38;101170.78;;;5.98;100.00
51439;BME280;38816;51.142;-0.974;2023-05-03T06:25:04;101169.66;;;6.09;100.00
51439;BME280;38816;51.142;-0.974;2023-05-03T06:27:29;101159.72;;;6.15;100.00
51439;BME280;38816;51.142;-0.974;2023-05-03T06:29:55;101165.44;;;6.27;100.00
51439;BME280;38816;51.142;-0.974;2023-05-03T06:32:20;101178.94;;;6.43;100.00
51439;BME280;38816;51.142;-0.974;2023-05-03T06:34:47;101162.00;;;6.45;100.00
51439;BME280;38816;51.142;-0.974;2023-05-03T06:37:12;101160.78;;;6.54;100.00
51439;BME280;38816;51.142;-0.974;2023-05-03T06:39:38;101162.78;;;6.62;100.00
51439;BME280;38816;51.142;-0.974;2023-05-03T06:42:03;101155.34;;;6.66;100.00
51439;BME280;38816;51.142;-0.974;2023-05-03T06:44:29;101152.28;;;6.73;100.00
51439;BME280;38816;51.142;-0.974;2023-05-03T06:46:55;101145.84;;;6.81;100.00
51439;BME280;38816;51.142;-0.974;2023-05-03T06:49:20;101148.75;;;6.89;100.00
51439;BME280;38816;51.142;-0.974;2023-05-03T06:51:46;101157.28;;;7.07;100.00
51439;BME280;38816;51.142;-0.974;2023-05-03T06:54:12;101147.09;;;7.09;100.00
51439;BME280;38816;51.142;-0.974;2023-05-03T06:56:38;101142.34;;;7.17;100.00
51439;BME280;38816;51.142;-0.974;2023-05-03T06:59:04;101154.84;;;7.30;100.00
51439;BME280;38816;51.142;-0.974;2023-05-03T07:01:33;101155.31;;;7.41;100.00
51439;BME280;38816;51.142;-0.974;2023-05-03T07:03:58;101151.31;;;7.47;100.00
51439;BME280;38816;51.142;-0.974;2023-05-03T07:06:24;101161.38;;;7.62;100.00
51439;BME280;38816;51.142;-0.974;2023-05-03T07:08:50;101145.25;;;7.65;100.00
51439;BME280;38816;51.142;-0.974;2023-05-03T07:11:17;101150.03;;;7.76;100.00
51439;BME280;38816;51.142;-0.974;2023-05-03T07:13:42;101150.22;;;7.81;100.00
51439;BME280;38816;51.142;-0.974;2023-05-03T07:16:08;101150.66;;;7.92;100.00
51439;BME280;38816;51.142;-0.974;2023-05-03T07:18:33;101159.88;;;8.07;100.00
51439;BME280;38816;51.142;-0.974;2023-05-03T07:20:58;101146.97;;;8.06;100.00
51439;BME280;38816;51.142;-0.974;2023-05-03T07:23:30;101144.81;;;8.15;100.00
51439;BME280;38816;51.142;-0.974;2023-05-03T07:25:55;101138.94;;;8.18;100.00
51439;BME280;38816;51.142;-0.974;2023-05-03T07:28:20;101142.00;;;8.30;100.00
51439;BME280;38816;51.142;-0.974;2023-05-03T07:30:46;101150.13;;;8.41;100.00
51439;BME280;38816;51.142;-0.974;2023-05-03T07:33:12;101130.69;;;8.46;100.00
51439;BME280;38816;51.142;-0.974;2023-05-03T07:35:37;101139.59;;;8.55;100.00
51439;BME280;38816;51.142;-0.974;2023-05-03T07:38:02;101150.41;;;8.69;100.00
51439;BME280;38816;51.142;-0.974;2023-05-03T07:40:28;101128.97;;;8.67;100.00
51439;BME280;38816;51.142;-0.974;2023-05-03T07:42:58;101142.44;;;8.84;100.00
51439;BME280;38816;51.142;-0.974;2023-05-03T07:45:23;101148.72;;;8.92;100.00
51439;BME280;38816;51.142;-0.974;2023-05-03T07:47:48;101140.22;;;8.93;100.00
51439;BME280;38816;51.142;-0.974;2023-05-03T07:50:14;101144.03;;;9.04;100.00
51439;BME280;38816;51.142;-0.974;2023-05-03T07:52:39;101131.38;;;9.09;100.00
51439;BME280;38816;51.142;-0.974;2023-05-03T07:55:07;101139.53;;;9.21;100.00
51439;BME280;38816;51.142;-0.974;2023-05-03T07:57:33;101114.75;;;9.22;100.00
51439;BME280;38816;51.142;-0.974;2023-05-03T07:59:58;101129.09;;;9.41;100.00
51439;BME280;38816;51.142;-0.974;2023-05-03T08:02:24;101129.47;;;9.51;100.00
51439;BME280;38816;51.142;-0.974;2023-05-03T08:04:50;101124.59;;;9.59;100.00
51439;BME280;38816;51.142;-0.974;2023-05-03T08:07:15;101117.94;;;9.64;100.00
51439;BME280;38816;51.142;-0.974;2023-05-03T08:09:41;101124.34;;;9.77;100.00
51439;BME280;38816;51.142;-0.974;2023-05-03T08:12:07;101115.88;;;9.79;100.00
51439;BME280;38816;51.142;-0.974;2023-05-03T08:14:32;101128.91;;;9.85;100.00
51439;BME280;38816;51.142;-0.974;2023-05-03T08:16:58;101109.16;;;9.83;100.00
51439;BME280;38816;51.142;-0.974;2023-05-03T08:19:24;101117.44;;;10.00;100.00
51439;BME280;38816;51.142;-0.974;2023-05-03T08:21:49;101117.81;;;10.12;100.00
51439;BME280;38816;51.142;-0.974;2023-05-03T08:24:18;101105.25;;;10.21;100.00
51439;BME280;38816;51.142;-0.974;2023-05-03T08:26:44;101102.28;;;10.34;100.00
51439;BME280;38816;51.142;-0.974;2023-05-03T08:29:10;101101.84;;;10.48;98.71
51439;BME280;38816;51.142;-0.974;2023-05-03T08:31:36;101104.69;;;10.57;98.11
51439;BME280;38816;51.142;-0.974;2023-05-03T08:34:01;101103.94;;;10.61;96.36
51439;BME280;38816;51.142;-0.974;2023-05-03T08:36:28;101099.34;;;10.79;99.36
51439;BME280;38816;51.142;-0.974;2023-05-03T08:38:53;101106.00;;;11.01;98.96
51439;BME280;38816;51.142;-0.974;2023-05-03T08:41:27;101101.25;;;11.16;97.22
51439;BME280;38816;51.142;-0.974;2023-05-03T08:43:54;101102.31;;;11.23;92.45
51439;BME280;38816;51.142;-0.974;2023-05-03T08:46:19;101107.50;;;11.25;89.66
51439;BME280;38816;51.142;-0.974;2023-05-03T08:48:49;101095.75;;;11.34;91.57
51439;BME280;38816;51.142;-0.974;2023-05-03T08:51:16;101091.63;;;11.39;91.74
51439;BME280;38816;51.142;-0.974;2023-05-03T08:53:42;101091.88;;;11.50;89.86
51439;BME280;38816;51.142;-0.974;2023-05-03T08:56:08;101090.41;;;11.58;89.30
51439;BME280;38816;51.142;-0.974;2023-05-03T08:58:35;101101.16;;;11.77;90.52
51439;BME280;38816;51.142;-0.974;2023-05-03T09:01:04;101092.84;;;11.87;83.74
51439;BME280;38816;51.142;-0.974;2023-05-03T09:03:31;101093.78;;;11.89;81.80
51439;BME280;38816;51.142;-0.974;2023-05-03T09:05:56;101074.09;;;11.93;83.91
51439;BME280;38816;51.142;-0.974;2023-05-03T09:08:29;101083.84;;;12.06;86.47
51439;BME280;38816;51.142;-0.974;2023-05-03T09:10:55;101074.78;;;12.22;86.29
51439;BME280;38816;51.142;-0.974;2023-05-03T09:13:29;101082.00;;;12.36;84.34
51439;BME280;38816;51.142;-0.974;2023-05-03T09:15:56;101074.59;;;12.52;85.81
51439;BME280;38816;51.142;-0.974;2023-05-03T09:18:22;101068.66;;;12.56;81.97
51439;BME280;38816;51.142;-0.974;2023-05-03T09:20:51;101084.28;;;12.62;80.00
51439;BME280;38816;51.142;-0.974;2023-05-03T09:23:22;101069.75;;;12.65;81.82
51439;BME280;38816;51.142;-0.974;2023-05-03T09:25:53;101068.34;;;12.81;84.57
51439;BME280;38816;51.142;-0.974;2023-05-03T09:28:19;101075.69;;;13.05;84.75
51439;BME280;38816;51.142;-0.974;2023-05-03T09:30:45;101069.03;;;13.15;84.14
51439;BME280;38816;51.142;-0.974;2023-05-03T09:33:12;101074.50;;;13.29;82.85
51439;BME280;38816;51.142;-0.974;2023-05-03T09:36:02;101079.81;;;13.38;83.83
51439;BME280;38816;51.142;-0.974;2023-05-03T09:38:33;101074.69;;;13.39;74.56
51439;BME280;38816;51.142;-0.974;2023-05-03T09:40:59;101067.59;;;13.29;71.97
51439;BME280;38816;51.142;-0.974;2023-05-03T09:43:30;101072.97;;;13.40;76.49
51439;BME280;38816;51.142;-0.974;2023-05-03T09:46:12;101068.72;;;13.42;71.00
51439;BME280;38816;51.142;-0.974;2023-05-03T09:48:38;101068.72;;;13.42;69.15
51439;BME280;38816;51.142;-0.974;2023-05-03T09:51:04;101063.69;;;13.51;73.62
51439;BME280;38816;51.142;-0.974;2023-05-03T09:53:35;101068.16;;;13.60;70.60
51439;BME280;38816;51.142;-0.974;2023-05-03T09:56:02;101067.50;;;13.73;74.10
51439;BME280;38816;51.142;-0.974;2023-05-03T09:58:28;101062.59;;;13.88;72.96
51439;BME280;38816;51.142;-0.974;2023-05-03T10:00:56;101054.13;;;13.97;70.18
51439;BME280;38816;51.142;-0.974;2023-05-03T10:03:27;101057.84;;;14.14;71.56
51439;BME280;38816;51.142;-0.974;2023-05-03T10:05:57;101064.88;;;14.26;70.09
51439;BME280;38816;51.142;-0.974;2023-05-03T10:08:34;101057.94;;;14.22;69.73
51439;BME280;38816;51.142;-0.974;2023-05-03T10:11:07;101065.75;;;14.25;63.20
51439;BME280;38816;51.142;-0.974;2023-05-03T10:13:34;101057.19;;;14.29;64.32
51439;BME280;38816;51.142;-0.974;2023-05-03T10:16:05;101054.78;;;14.44;66.45
51439;BME280;38816;51.142;-0.974;2023-05-03T10:18:37;101048.09;;;14.56;66.80
51439;BME280;38816;51.142;-0.974;2023-05-03T10:21:15;101051.78;;;14.73;67.07
51439;BME280;38816;51.142;-0.974;2023-05-03T10:26:41;101044.94;;;14.80;70.01
51439;BME280;38816;51.142;-0.974;2023-05-03T10:32:05;101048.44;;;14.82;65.37
51439;BME280;38816;51.142;-0.974;2023-05-03T10:35:06;101040.03;;;15.03;66.11
51439;BME280;38816;51.142;-0.974;2023-05-03T10:37:32;101051.44;;;15.18;67.38
51439;BME280;38816;51.142;-0.974;2023-05-03T10:40:06;101034.16;;;15.20;59.74
51439;BME280;38816;51.142;-0.974;2023-05-03T10:42:32;101025.50;;;15.17;62.89
51439;BME280;38816;51.142;-0.974;2023-05-03T10:44:59;101022.06;;;15.21;61.23
51439;BME280;38816;51.142;-0.974;2023-05-03T10:47:25;101019.56;;;15.30;63.00
51439;BME280;38816;51.142;-0.974;2023-05-03T10:55:20;100992.97;;;15.47;62.83
51439;BME280;38816;51.142;-0.974;2023-05-03T10:57:47;100990.47;;;15.60;64.71
51439;BME280;38816;51.142;-0.974;2023-05-03T11:00:16;100984.56;;;15.72;64.08
51439;BME280;38816;51.142;-0.974;2023-05-03T11:03:12;100994.13;;;15.82;61.41
51439;BME280;38816;51.142;-0.974;2023-05-03T11:05:46;100990.69;;;15.82;60.97
51439;BME280;38816;51.142;-0.974;2023-05-03T11:08:17;100992.50;;;15.95;61.60
51439;BME280;38816;51.142;-0.974;2023-05-03T11:10:48;100987.31;;;15.98;61.43
51439;BME280;38816;51.142;-0.974;2023-05-03T11:13:13;100987.38;;;16.06;61.28
51439;BME280;38816;51.142;-0.974;2023-05-03T11:15:39;100982.22;;;16.10;59.57
51439;BME280;38816;51.142;-0.974;2023-05-03T11:18:06;100988.31;;;16.18;60.08
51439;BME280;38816;51.142;-0.974;2023-05-03T11:20:32;100974.50;;;16.24;59.87
51439;BME280;38816;51.142;-0.974;2023-05-03T11:22:57;100965.06;;;16.35;60.78
51439;BME280;38816;51.142;-0.974;2023-05-03T11:25:23;100970.28;;;16.44;62.47
51439;BME280;38816;51.142;-0.974;2023-05-03T11:27:48;100965.88;;;16.34;55.91
51439;BME280;38816;51.142;-0.974;2023-05-03T11:30:14;100978.91;;;16.42;59.57
51439;BME280;38816;51.142;-0.974;2023-05-03T11:32:41;100965.06;;;16.48;60.05
51439;BME280;38816;51.142;-0.974;2023-05-03T11:35:07;100966.88;;;16.59;61.06
51439;BME280;38816;51.142;-0.974;2023-05-03T11:37:33;100964.34;;;16.76;62.20
51439;BME280;38816;51.142;-0.974;2023-05-03T11:39:59;100952.28;;;16.93;62.33
51439;BME280;38816;51.142;-0.974;2023-05-03T11:42:25;100954.03;;;17.04;60.53
51439;BME280;38816;51.142;-0.974;2023-05-03T11:44:53;100937.53;;;16.97;60.63
51439;BME280;38816;51.142;-0.974;2023-05-03T11:47:19;100944.50;;;17.00;59.63
51439;BME280;38816;51.142;-0.974;2023-05-03T11:49:52;100942.75;;;16.97;58.46
51439;BME280;38816;51.142;-0.974;2023-05-03T11:52:22;100935.84;;;16.99;60.03
51439;BME280;38816;51.142;-0.974;2023-05-03T11:54:53;100941.03;;;17.05;60.41
51439;BME280;38816;51.142;-0.974;2023-05-03T11:57:19;100928.03;;;16.94;55.99
51439;BME280;38816;51.142;-0.974;2023-05-03T11:59:45;100937.53;;;16.88;57.92
51439;BME280;38816;51.142;-0.974;2023-05-03T12:02:13;100944.47;;;16.87;57.08
51439;BME280;38816;51.142;-0.974;2023-05-03T12:04:41;100931.47;;;16.86;55.76
51439;BME280;38816;51.142;-0.974;2023-05-03T12:07:09;100936.66;;;16.87;56.37
51439;BME280;38816;51.142;-0.974;2023-05-03T12:09:35;100922.81;;;16.91;58.35
51439;BME280;38816;51.142;-0.974;2023-05-03T12:12:01;100915.06;;;16.99;60.08
51439;BME280;38816;51.142;-0.974;2023-05-03T12:14:28;100917.66;;;17.13;59.66
51439;BME280;38816;51.142;-0.974;2023-05-03T12:16:53;100915.06;;;17.28;60.40
51439;BME280;38816;51.142;-0.974;2023-05-03T12:19:29;100909.00;;;17.29;55.89
51439;BME280;38816;51.142;-0.974;2023-05-03T12:21:55;100910.72;;;17.30;59.02
51439;BME280;38816;51.142;-0.974;2023-05-03T12:24:20;100902.94;;;17.35;57.50
51439;BME280;38816;51.142;-0.974;2023-05-03T12:26:48;100898.59;;;17.35;60.85
51439;BME280;38816;51.142;-0.974;2023-05-03T12:29:14;100897.72;;;17.41;62.02
51439;BME280;38816;51.142;-0.974;2023-05-03T12:31:40;100894.25;;;17.46;59.74
51439;BME280;38816;51.142;-0.974;2023-05-03T12:34:07;100883.00;;;17.48;58.74
51439;BME280;38816;51.142;-0.974;2023-05-03T12:36:32;100889.91;;;17.53;59.44
51439;BME280;38816;51.142;-0.974;2023-05-03T12:38:59;100885.53;;;17.64;60.67
51439;BME280;38816;51.142;-0.974;2023-05-03T12:41:25;100893.34;;;17.81;62.93
51439;BME280;38816;51.142;-0.974;2023-05-03T12:43:53;100874.22;;;17.94;57.23
51439;BME280;38816;51.142;-0.974;2023-05-03T12:46:18;100878.53;;;17.99;56.72
51439;BME280;38816;51.142;-0.974;2023-05-03T12:48:44;100880.25;;;18.07;58.10
51439;BME280;38816;51.142;-0.974;2023-05-03T12:51:09;100879.34;;;18.13;54.92
51439;BME280;38816;51.142;-0.974;2023-05-03T12:53:35;100877.63;;;18.15;56.98
51439;BME280;38816;51.142;-0.974;2023-05-03T12:56:00;100860.31;;;18.05;50.88
51439;BME280;38816;51.142;-0.974;2023-05-03T12:58:26;100857.75;;;17.91;58.61
51439;BME280;38816;51.142;-0.974;2023-05-03T13:00:51;100855.13;;;17.99;58.14
51439;BME280;38816;51.142;-0.974;2023-05-03T13:03:18;100843.00;;;17.94;59.02